sensor_id;sensor_type;location;lat;lon;timestamp;pressure;altitude;pressure_sealevel;temperature;humidity
54389;BME280;40975;50.390;8.640;2023-10-19T00:00:34;97320.50;;;9.07;100.00
54389;BME280;40975;50.390;8.640;2023-10-19T00:03:02;97321.59;;;9.13;100.00
54389;BME280;40975;50.390;8.640;2023-10-19T00:05:33;97314.66;;;9.12;100.00
54389;BME280;40975;50.390;8.640;2023-10-19T00:08:03;97319.75;;;9.13;100.00
54389;BME280;40975;50.390;8.640;2023-10-19T00:10:37;97315.94;;;9.16;100.00
54389;BME280;40975;50.390;8.640;2023-10-19T00:13:03;97317.75;;;9.15;100.00
54389;BME280;40975;50.390;8.640;2023-10-19T00:15:33;97305.88;;;9.11;100.00
54389;BME280;40975;50.390;8.640;2023-10-19T00:18:00;97301.25;;;9.13;100.00
54389;BME280;40975;50.390;8.640;2023-10-19T00:20:47;97303.06;;;9.13;100.00
54389;BME280;40975;50.390;8.640;2023-10-19T00:23:13;97301.69;;;9.17;100.00
54389;BME280;40975;50.390;8.640;2023-10-19T00:25:47;97295.94;;;9.13;100.00
54389;BME280;40975;50.390;8.640;2023-10-19T00:28:17;97297.41;;;9.16;100.00
54389;BME280;40975;50.390;8.640;2023-10-19T00:30:44;97290.31;;;9.16;100.00
54389;BME280;40975;50.390;8.640;2023-10-19T00:33:10;97295.59;;;9.16;100.00
54389;BME280;40975;50.390;8.640;2023-10-19T00:35:44;97293.75;;;9.17;100.00
54389;BME280;40975;50.390;8.640;2023-10-19T00:38:27;97285.63;;;9.18;100.00
54389;BME280;40975;50.390;8.640;2023-10-19T00:41:08;97285.28;;;9.22;100.00
54389;BME280;40975;50.390;8.640;2023-10-19T00:43:40;97286.72;;;9.24;100.00
54389;BME280;40975;50.390;8.640;2023-10-19T00:46:09;97283.25;;;9.24;100.00
54389;BME280;40975;50.390;8.640;2023-10-19T00:48:47;97273.31;;;9.26;100.00
54389;BME280;40975;50.390;8.640;2023-10-19T00:51:14;97281.81;;;9.21;100.00
54389;BME280;40975;50.390;8.640;2023-10-19T00:53:55;97282.25;;;9.25;100.00
54389;BME280;40975;50.390;8.640;2023-10-19T00:56:24;97273.47;;;9.24;100.00
54389;BME280;40975;50.390;8.640;2023-10-19T00:58:53;97283.91;;;9.26;100.00
54389;BME280;40975;50.390;8.640;2023-10-19T01:01:23;97278.63;;;9.26;100.00
54389;BME280;40975;50.390;8.640;2023-10-19T01:03:50;97273.13;;;9.27;100.00
54389;BME280;40975;50.390;8.640;2023-10-19T01:06:18;97263.53;;;9.26;100.00
54389;BME280;40975;50.390;8.640;2023-10-19T01:08:45;97256.25;;;9.28;100.00
54389;BME280;40975;50.390;8.640;2023-10-19T01:11:11;97257.25;;;9.27;100.00
54389;BME280;40975;50.390;8.640;2023-10-19T01:13:41;97256.44;;;9.27;100.00
54389;BME280;40975;50.390;8.640;2023-10-19T01:16:14;97254.59;;;9.27;100.00
54389;BME280;40975;50.390;8.640;2023-10-19T01:18:51;97250.59;;;9.31;100.00
54389;BME280;40975;50.390;8.640;2023-10-19T01:21:21;97255.69;;;9.33;100.00
54389;BME280;40975;50.390;8.640;2023-10-19T01:23:46;97249.59;;;9.32;100.00
54389;BME280;40975;50.390;8.640;2023-10-19T01:26:13;97245.28;;;9.31;100.00
54389;BME280;40975;50.390;8.640;2023-10-19T01:28:44;97250.59;;;9.31;100.00
54389;BME280;40975;50.390;8.640;2023-10-19T01:31:22;97244.53;;;9.38;100.00
54389;BME280;40975;50.390;8.640;2023-10-19T01:33:54;97249.03;;;9.37;100.00
54389;BME280;40975;50.390;8.640;2023-10-19T01:36:24;97245.91;;;9.33;100.00
54389;BME280;40975;50.390;8.640;2023-10-19T01:38:50;97247.19;;;9.38;100.00
54389;BME280;40975;50.390;8.640;2023-10-19T01:41:19;97241.91;;;9.38;100.00
54389;BME280;40975;50.390;8.640;2023-10-19T01:43:47;97246.19;;;9.39;100.00
54389;BME280;40975;50.390;8.640;2023-10-19T01:46:18;97240.91;;;9.39;100.00
54389;BME280;40975;50.390;8.640;2023-10-19T01:48:52;97242.34;;;9.41;100.00
54389;BME280;40975;50.390;8.640;2023-10-19T01:51:26;97237.59;;;9.37;100.00
54389;BME280;40975;50.390;8.640;2023-10-19T01:53:52;97240.09;;;9.38;100.00
54389;BME280;40975;50.390;8.640;2023-10-19T01:56:20;97231.94;;;9.40;100.00
54389;BME280;40975;50.390;8.640;2023-10-19T01:58:47;97224.63;;;9.57;100.00
54389;BME280;40975;50.390;8.640;2023-10-19T02:01:14;97219.44;;;9.70;100.00
54389;BME280;40975;50.390;8.640;2023-10-19T02:03:46;97211.88;;;9.67;100.00
54389;BME280;40975;50.390;8.640;2023-10-19T02:06:13;97214.91;;;9.64;100.00
54389;BME280;40975;50.390;8.640;2023-10-19T02:09:30;97207.03;;;9.71;100.00
54389;BME280;40975;50.390;8.640;2023-10-19T02:11:47;97206.97;;;9.86;100.00
54389;BME280;40975;50.390;8.640;2023-10-19T02:14:13;97205.41;;;9.91;100.00
54389;BME280;40975;50.390;8.640;2023-10-19T02:16:41;97211.16;;;9.95;100.00
54389;BME280;40975;50.390;8.640;2023-10-19T02:19:08;97207.50;;;9.96;100.00
54389;BME280;40975;50.390;8.640;2023-10-19T02:21:33;97204.44;;;9.99;100.00
54389;BME280;40975;50.390;8.640;2023-10-19T02:24:06;97198.78;;;10.02;100.00
54389;BME280;40975;50.390;8.640;2023-10-19T02:26:33;97202.84;;;10.05;100.00
54389;BME280;40975;50.390;8.640;2023-10-19T02:28:59;97199.78;;;10.01;100.00
54389;BME280;40975;50.390;8.640;2023-10-19T02:31:24;97189.44;;;10.06;100.00
54389;BME280;40975;50.390;8.640;2023-10-19T02:33:53;97185.16;;;10.05;100.00
54389;BME280;40975;50.390;8.640;2023-10-19T02:36:29;97185.38;;;10.10;100.00
54389;BME280;40975;50.390;8.640;2023-10-19T02:39:00;97186.66;;;10.15;100.00
54389;BME280;40975;50.390;8.640;2023-10-19T02:41:29;97183.63;;;10.18;100.00
54389;BME280;40975;50.390;8.640;2023-10-19T02:43:55;97185.06;;;10.20;100.00
54389;BME280;40975;50.390;8.640;2023-10-19T02:46:28;97183.06;;;10.22;100.00
54389;BME280;40975;50.390;8.640;2023-10-19T02:48:54;97177.53;;;10.24;100.00
54389;BME280;40975;50.390;8.640;2023-10-19T02:51:20;97172.88;;;10.26;100.00
54389;BME280;40975;50.390;8.640;2023-10-19T02:53:45;97178.59;;;10.30;100.00
54389;BME280;40975;50.390;8.640;2023-10-19T02:56:13;97167.00;;;10.31;100.00
54389;BME280;40975;50.390;8.640;2023-10-19T02:58:41;97164.34;;;10.31;100.00
54389;BME280;40975;50.390;8.640;2023-10-19T03:01:13;97160.69;;;10.32;100.00
54389;BME280;40975;50.390;8.640;2023-10-19T03:03:39;97163.50;;;10.30;100.00
54389;BME280;40975;50.390;8.640;2023-10-19T03:06:04;97161.69;;;10.31;100.00
54389;BME280;40975;50.390;8.640;2023-10-19T03:08:31;97170.28;;;10.33;100.00
54389;BME280;40975;50.390;8.640;2023-10-19T03:10:56;97168.44;;;10.33;100.00
54389;BME280;40975;50.390;8.640;2023-10-19T03:13:32;97163.34;;;10.32;100.00
54389;BME280;40975;50.390;8.640;2023-10-19T03:16:01;97156.38;;;10.31;100.00
54389;BME280;40975;50.390;8.640;2023-10-19T03:18:31;97150.88;;;10.32;100.00
54389;BME280;40975;50.390;8.640;2023-10-19T03:20:57;97144.78;;;10.32;100.00
54389;BME280;40975;50.390;8.640;2023-10-19T03:23:22;97147.44;;;10.32;100.00
54389;BME280;40975;50.390;8.640;2023-10-19T03:25:54;97152.31;;;10.35;100.00
54389;BME280;40975;50.390;8.640;2023-10-19T03:28:38;97158.25;;;10.37;100.00
54389;BME280;40975;50.390;8.640;2023-10-19T03:31:06;97160.91;;;10.37;100.00
54389;BME280;40975;50.390;8.640;2023-10-19T03:33:31;97155.44;;;10.38;100.00
54389;BME280;40975;50.390;8.640;2023-10-19T03:35:56;97149.25;;;10.31;100.00
54389;BME280;40975;50.390;8.640;2023-10-19T03:38:22;97147.53;;;10.23;100.00
54389;BME280;40975;50.390;8.640;2023-10-19T03:40:49;97151.25;;;10.22;100.00
54389;BME280;40975;50.390;8.640;2023-10-19T03:43:18;97145.47;;;10.19;100.00
54389;BME280;40975;50.390;8.640;2023-10-19T03:45:46;97136.78;;;10.25;100.00
54389;BME280;40975;50.390;8.640;2023-10-19T03:48:18;97134.28;;;10.23;100.00
54389;BME280;40975;50.390;8.640;2023-10-19T03:50:50;97130.06;;;10.29;100.00
54389;BME280;40975;50.390;8.640;2023-10-19T03:53:17;97133.47;;;10.45;100.00
54389;BME280;40975;50.390;8.640;2023-10-19T03:55:43;97130.38;;;10.41;100.00
54389;BME280;40975;50.390;8.640;2023-10-19T03:58:09;97130.44;;;10.48;100.00
54389;BME280;40975;50.390;8.640;2023-10-19T04:00:37;97128.59;;;10.48;100.00
54389;BME280;40975;50.390;8.640;2023-10-19T04:03:03;97123.75;;;10.58;100.00
54389;BME280;40975;50.390;8.640;2023-10-19T04:05:28;97128.75;;;10.40;100.00
54389;BME280;40975;50.390;8.640;2023-10-19T04:07:53;97119.69;;;10.34;100.00
54389;BME280;40975;50.390;8.640;2023-10-19T04:10:22;97108.84;;;10.29;100.00
54389;BME280;40975;50.390;8.640;2023-10-19T04:12:57;97119.44;;;10.29;100.00
54389;BME280;40975;50.390;8.640;2023-10-19T04:15:25;97118.22;;;10.25;100.00
54389;BME280;40975;50.390;8.640;2023-10-19T04:17:51;97109.63;;;10.23;100.00
54389;BME280;40975;50.390;8.640;2023-10-19T04:20:20;97113.53;;;10.27;100.00
54389;BME280;40975;50.390;8.640;2023-10-19T04:22:46;97098.44;;;10.27;100.00
54389;BME280;40975;50.390;8.640;2023-10-19T04:25:12;97097.81;;;10.25;100.00
54389;BME280;40975;50.390;8.640;2023-10-19T04:27:39;97094.94;;;10.20;100.00
54389;BME280;40975;50.390;8.640;2023-10-19T04:30:10;97101.09;;;10.27;100.00
54389;BME280;40975;50.390;8.640;2023-10-19T04:32:47;97094.97;;;10.27;100.00
54389;BME280;40975;50.390;8.640;2023-10-19T04:35:13;97093.34;;;10.26;100.00
54389;BME280;40975;50.390;8.640;2023-10-19T04:37:40;97086.19;;;10.26;100.00
54389;BME280;40975;50.390;8.640;2023-10-19T04:40:11;97076.22;;;10.29;100.00
54389;BME280;40975;50.390;8.640;2023-10-19T04:42:37;97078.50;;;10.32;100.00
54389;BME280;40975;50.390;8.640;2023-10-19T04:45:03;97066.25;;;10.31;100.00
54389;BME280;40975;50.390;8.640;2023-10-19T04:47:30;97067.75;;;10.40;100.00
54389;BME280;40975;50.390;8.640;2023-10-19T04:49:55;97064.94;;;10.48;100.00
54389;BME280;40975;50.390;8.640;2023-10-19T04:52:21;97063.25;;;10.40;100.00
54389;BME280;40975;50.390;8.640;2023-10-19T04:54:46;97089.31;;;10.37;100.00
54389;BME280;40975;50.390;8.640;2023-10-19T04:57:12;97088.97;;;10.40;100.00
54389;BME280;40975;50.390;8.640;2023-10-19T04:59:37;97084.28;;;10.42;100.00
54389;BME280;40975;50.390;8.640;2023-10-19T05:02:02;97093.25;;;10.41;100.00
54389;BME280;40975;50.390;8.640;2023-10-19T05:04:28;97085.72;;;10.45;100.00
54389;BME280;40975;50.390;8.640;2023-10-19T05:06:54;97092.69;;;10.46;100.00
54389;BME280;40975;50.390;8.640;2023-10-19T05:09:20;97090.03;;;10.46;100.00
54389;BME280;40975;50.390;8.640;2023-10-19T05:11:45;97096.97;;;10.47;100.00
54389;BME280;40975;50.390;8.640;2023-10-19T05:14:12;97093.47;;;10.46;100.00
54389;BME280;40975;50.390;8.640;2023-10-19T05:16:39;97099.78;;;10.45;100.00
54389;BME280;40975;50.390;8.640;2023-10-19T05:19:04;97090.81;;;10.46;100.00
54389;BME280;40975;50.390;8.640;2023-10-19T05:21:30;97095.13;;;10.47;100.00
54389;BME280;40975;50.390;8.640;2023-10-19T05:23:55;97090.03;;;10.46;100.00
54389;BME280;40975;50.390;8.640;2023-10-19T05:26:20;97089.41;;;10.44;100.00
54389;BME280;40975;50.390;8.640;2023-10-19T05:28:46;97087.38;;;10.46;100.00
54389;BME280;40975;50.390;8.640;2023-10-19T05:31:13;97085.72;;;10.45;100.00
54389;BME280;40975;50.390;8.640;2023-10-19T05:33:38;97084.72;;;10.46;100.00
54389;BME280;40975;50.390;8.640;2023-10-19T05:36:04;97091.84;;;10.45;100.00
54389;BME280;40975;50.390;8.640;2023-10-19T05:38:30;97091.84;;;10.45;100.00
54389;BME280;40975;50.390;8.640;2023-10-19T05:40:57;97085.94;;;10.43;100.00
54389;BME280;40975;50.390;8.640;2023-10-19T05:43:24;97092.69;;;10.46;100.00
54389;BME280;40975;50.390;8.640;2023-10-19T05:45:50;97095.97;;;10.48;100.00
54389;BME280;40975;50.390;8.640;2023-10-19T05:48:15;97105.53;;;10.49;100.00
54389;BME280;40975;50.390;8.640;2023-10-19T05:50:41;97110.81;;;10.49;100.00
54389;BME280;40975;50.390;8.640;2023-10-19T05:53:07;97108.16;;;10.49;100.00
54389;BME280;40975;50.390;8.640;2023-10-19T05:55:33;97106.34;;;10.49;100.00
54389;BME280;40975;50.390;8.640;2023-10-19T05:58:02;97099.22;;;10.50;100.00
54389;BME280;40975;50.390;8.640;2023-10-19T06:00:30;97100.03;;;10.50;100.00
54389;BME280;40975;50.390;8.640;2023-10-19T06:02:56;97102.50;;;10.52;100.00
54389;BME280;40975;50.390;8.640;2023-10-19T06:05:22;97093.94;;;10.56;100.00
54389;BME280;40975;50.390;8.640;2023-10-19T06:07:49;97092.13;;;10.57;100.00
54389;BME280;40975;50.390;8.640;2023-10-19T06:10:16;97101.50;;;10.60;100.00
54389;BME280;40975;50.390;8.640;2023-10-19T06:12:43;97101.13;;;10.63;100.00
54389;BME280;40975;50.390;8.640;2023-10-19T06:15:10;97105.41;;;10.64;100.00
54389;BME280;40975;50.390;8.640;2023-10-19T06:17:40;97095.25;;;10.67;100.00
54389;BME280;40975;50.390;8.640;2023-10-19T06:20:11;97098.50;;;10.69;100.00
54389;BME280;40975;50.390;8.640;2023-10-19T06:22:53;97108.94;;;10.71;100.00
54389;BME280;40975;50.390;8.640;2023-10-19T06:25:20;97101.13;;;10.69;100.00
54389;BME280;40975;50.390;8.640;2023-10-19T06:27:47;97102.59;;;10.72;100.00
54389;BME280;40975;50.390;8.640;2023-10-19T06:30:13;97101.00;;;10.78;100.00
54389;BME280;40975;50.390;8.640;2023-10-19T06:32:45;97096.72;;;10.83;100.00
54389;BME280;40975;50.390;8.640;2023-10-19T06:35:10;97107.78;;;10.87;100.00
54389;BME280;40975;50.390;8.640;2023-10-19T06:37:36;97099.81;;;10.87;100.00
54389;BME280;40975;50.390;8.640;2023-10-19T06:40:02;97106.97;;;10.93;100.00
54389;BME280;40975;50.390;8.640;2023-10-19T06:42:27;97100.25;;;10.97;100.00
54389;BME280;40975;50.390;8.640;2023-10-19T06:44:52;97099.66;;;11.02;100.00
54389;BME280;40975;50.390;8.640;2023-10-19T06:47:20;97093.56;;;11.08;100.00
54389;BME280;40975;50.390;8.640;2023-10-19T06:49:47;97100.09;;;11.19;100.00
54389;BME280;40975;50.390;8.640;2023-10-19T06:52:13;97099.09;;;11.27;100.00
54389;BME280;40975;50.390;8.640;2023-10-19T06:54:38;97104.22;;;11.35;100.00
54389;BME280;40975;50.390;8.640;2023-10-19T06:57:04;97109.78;;;11.40;100.00
54389;BME280;40975;50.390;8.640;2023-10-19T06:59:29;97108.34;;;11.44;100.00
54389;BME280;40975;50.390;8.640;2023-10-19T07:01:54;97104.47;;;11.47;100.00
54389;BME280;40975;50.390;8.640;2023-10-19T07:04:20;97104.88;;;11.50;100.00
54389;BME280;40975;50.390;8.640;2023-10-19T07:06:45;97109.38;;;11.50;100.00
54389;BME280;40975;50.390;8.640;2023-10-19T07:09:12;97111.63;;;11.46;100.00
54389;BME280;40975;50.390;8.640;2023-10-19T07:11:38;97102.84;;;11.53;100.00
54389;BME280;40975;50.390;8.640;2023-10-19T07:14:03;97105.50;;;11.66;100.00
54389;BME280;40975;50.390;8.640;2023-10-19T07:16:32;97108.38;;;11.78;100.00
54389;BME280;40975;50.390;8.640;2023-10-19T07:18:57;97105.53;;;11.79;100.00
54389;BME280;40975;50.390;8.640;2023-10-19T07:21:24;97114.94;;;11.82;100.00
54389;BME280;40975;50.390;8.640;2023-10-19T07:23:50;97115.13;;;11.74;100.00
54389;BME280;40975;50.390;8.640;2023-10-19T07:26:17;97121.88;;;11.70;100.00
54389;BME280;40975;50.390;8.640;2023-10-19T07:28:44;97103.50;;;11.75;100.00
54389;BME280;40975;50.390;8.640;2023-10-19T07:31:10;97109.41;;;11.83;100.00
54389;BME280;40975;50.390;8.640;2023-10-19T07:33:40;97104.31;;;11.89;100.00
54389;BME280;40975;50.390;8.640;2023-10-19T07:36:13;97105.94;;;11.96;100.00
54389;BME280;40975;50.390;8.640;2023-10-19T07:38:43;97097.97;;;11.96;100.00
54389;BME280;40975;50.390;8.640;2023-10-19T07:41:10;97106.34;;;11.93;100.00
54389;BME280;40975;50.390;8.640;2023-10-19T07:43:36;97101.06;;;12.00;100.00
54389;BME280;40975;50.390;8.640;2023-10-19T07:46:02;97107.19;;;12.07;100.00
54389;BME280;40975;50.390;8.640;2023-10-19T07:48:27;97102.91;;;12.06;100.00
54389;BME280;40975;50.390;8.640;2023-10-19T07:50:53;97110.25;;;12.24;100.00
54389;BME280;40975;50.390;8.640;2023-10-19T07:53:18;97112.69;;;12.33;100.00
54389;BME280;40975;50.390;8.640;2023-10-19T07:55:44;97111.03;;;12.52;100.00
54389;BME280;40975;50.390;8.640;2023-10-19T07:58:09;97097.03;;;12.70;100.00
54389;BME280;40975;50.390;8.640;2023-10-19T08:00:35;97103.09;;;12.97;100.00
54389;BME280;40975;50.390;8.640;2023-10-19T08:03:02;97096.81;;;13.24;100.00
54389;BME280;40975;50.390;8.640;2023-10-19T08:05:28;97103.97;;;13.68;100.00
54389;BME280;40975;50.390;8.640;2023-10-19T08:07:53;97104.22;;;13.60;100.00
54389;BME280;40975;50.390;8.640;2023-10-19T08:10:20;97103.69;;;13.45;100.00
54389;BME280;40975;50.390;8.640;2023-10-19T08:12:47;97101.03;;;13.38;100.00
54389;BME280;40975;50.390;8.640;2023-10-19T08:15:14;97099.84;;;13.34;100.00
54389;BME280;40975;50.390;8.640;2023-10-19T08:17:41;97092.91;;;13.26;100.00
54389;BME280;40975;50.390;8.640;2023-10-19T08:20:08;97111.19;;;13.16;100.00
54389;BME280;40975;50.390;8.640;2023-10-19T08:22:37;97114.47;;;13.18;100.00
54389;BME280;40975;50.390;8.640;2023-10-19T08:25:04;97105.63;;;13.24;100.00
54389;BME280;40975;50.390;8.640;2023-10-19T08:27:39;97104.94;;;13.35;100.00
54389;BME280;40975;50.390;8.640;2023-10-19T08:30:06;97105.94;;;13.48;100.00
54389;BME280;40975;50.390;8.640;2023-10-19T08:32:34;97107.16;;;13.52;100.00
54389;BME280;40975;50.390;8.640;2023-10-19T08:34:59;97101.41;;;13.48;100.00
54389;BME280;40975;50.390;8.640;2023-10-19T08:37:26;97088.41;;;13.27;100.00
54389;BME280;40975;50.390;8.640;2023-10-19T08:39:51;97093.13;;;13.25;100.00
54389;BME280;40975;50.390;8.640;2023-10-19T08:42:16;97097.44;;;13.26;100.00
54389;BME280;40975;50.390;8.640;2023-10-19T08:44:42;97095.13;;;13.36;100.00
54389;BME280;40975;50.390;8.640;2023-10-19T08:47:07;97101.56;;;13.60;100.00
54389;BME280;40975;50.390;8.640;2023-10-19T08:49:34;97097.91;;;13.87;100.00
54389;BME280;40975;50.390;8.640;2023-10-19T08:52:00;97106.59;;;14.26;100.00
54389;BME280;40975;50.390;8.640;2023-10-19T08:54:29;97103.13;;;14.62;100.00
54389;BME280;40975;50.390;8.640;2023-10-19T08:56:55;97101.09;;;15.02;100.00
54389;BME280;40975;50.390;8.640;2023-10-19T08:59:21;97100.88;;;15.15;100.00
54389;BME280;40975;50.390;8.640;2023-10-19T09:01:46;97091.84;;;15.16;100.00
54389;BME280;40975;50.390;8.640;2023-10-19T09:04:12;97098.06;;;15.29;100.00
54389;BME280;40975;50.390;8.640;2023-10-19T09:06:41;97108.78;;;15.10;100.00
54389;BME280;40975;50.390;8.640;2023-10-19T09:09:11;97103.41;;;15.29;100.00
54389;BME280;40975;50.390;8.640;2023-10-19T09:11:45;97096.28;;;16.07;100.00
54389;BME280;40975;50.390;8.640;2023-10-19T09:14:12;97096.84;;;17.21;100.00
54389;BME280;40975;50.390;8.640;2023-10-19T09:16:55;97083.44;;;18.53;100.00
54389;BME280;40975;50.390;8.640;2023-10-19T09:19:30;97074.78;;;18.28;100.00
54389;BME280;40975;50.390;8.640;2023-10-19T09:22:01;97081.94;;;18.06;100.00
54389;BME280;40975;50.390;8.640;2023-10-19T09:24:35;97071.91;;;17.67;100.00
54389;BME280;40975;50.390;8.640;2023-10-19T09:27:02;97068.31;;;20.33;94.03
54389;BME280;40975;50.390;8.640;2023-10-19T09:29:27;97068.81;;;21.57;85.44
54389;BME280;40975;50.390;8.640;2023-10-19T09:31:53;97069.66;;;21.94;83.50
54389;BME280;40975;50.390;8.640;2023-10-19T09:34:24;97059.38;;;22.06;79.19
54389;BME280;40975;50.390;8.640;2023-10-19T09:36:56;97056.94;;;22.04;77.75
54389;BME280;40975;50.390;8.640;2023-10-19T09:39:22;97071.56;;;23.60;71.01
54389;BME280;40975;50.390;8.640;2023-10-19T09:41:52;97080.47;;;24.01;70.12
54389;BME280;40975;50.390;8.640;2023-10-19T09:44:21;97069.03;;;24.09;68.07
54389;BME280;40975;50.390;8.640;2023-10-19T09:46:53;97070.81;;;24.19;67.56
54389;BME280;40975;50.390;8.640;2023-10-19T09:49:20;97059.06;;;22.33;73.20
54389;BME280;40975;50.390;8.640;2023-10-19T09:51:46;97061.41;;;20.53;80.47
54389;BME280;40975;50.390;8.640;2023-10-19T09:54:22;97059.47;;;19.13;91.99
54389;BME280;40975;50.390;8.640;2023-10-19T09:56:58;97044.09;;;18.24;98.28
54389;BME280;40975;50.390;8.640;2023-10-19T09:59:33;97042.56;;;17.77;100.00
54389;BME280;40975;50.390;8.640;2023-10-19T10:02:05;97025.81;;;17.87;100.00
54389;BME280;40975;50.390;8.640;2023-10-19T10:04:31;97025.41;;;18.29;100.00
54389;BME280;40975;50.390;8.640;2023-10-19T10:06:57;97028.25;;;19.66;93.90
54389;BME280;40975;50.390;8.640;2023-10-19T10:09:25;97039.84;;;18.68;97.22
54389;BME280;40975;50.390;8.640;2023-10-19T10:11:52;97039.06;;;18.28;98.47
54389;BME280;40975;50.390;8.640;2023-10-19T10:14:23;97034.03;;;18.54;97.14
54389;BME280;40975;50.390;8.640;2023-10-19T10:16:59;97028.56;;;20.08;88.60
54389;BME280;40975;50.390;8.640;2023-10-19T10:19:26;97035.25;;;21.06;81.74
54389;BME280;40975;50.390;8.640;2023-10-19T10:22:08;97024.56;;;21.73;77.36
54389;BME280;40975;50.390;8.640;2023-10-19T10:24:43;97025.13;;;22.93;70.25
54389;BME280;40975;50.390;8.640;2023-10-19T10:27:09;97023.25;;;22.88;68.45
54389;BME280;40975;50.390;8.640;2023-10-19T10:29:53;97022.69;;;21.79;75.19
54389;BME280;40975;50.390;8.640;2023-10-19T10:32:48;97019.38;;;22.34;72.40
54389;BME280;40975;50.390;8.640;2023-10-19T10:38:00;97017.00;;;21.86;74.24
54389;BME280;40975;50.390;8.640;2023-10-19T10:40:26;97008.34;;;21.94;73.90
54389;BME280;40975;50.390;8.640;2023-10-19T10:43:04;97006.19;;;22.07;72.16
54389;BME280;40975;50.390;8.640;2023-10-19T10:45:30;97008.53;;;22.49;71.88
54389;BME280;40975;50.390;8.640;2023-10-19T10:47:56;97000.28;;;21.89;71.48
54389;BME280;40975;50.390;8.640;2023-10-19T10:50:21;97007.50;;;21.21;74.65
54389;BME280;40975;50.390;8.640;2023-10-19T10:52:46;97022.56;;;20.43;78.75
54389;BME280;40975;50.390;8.640;2023-10-19T10:55:13;97019.63;;;20.45;80.38
54389;BME280;40975;50.390;8.640;2023-10-19T10:57:40;97025.03;;;19.37;85.22
54389;BME280;40975;50.390;8.640;2023-10-19T11:00:11;97027.72;;;19.37;87.20
54389;BME280;40975;50.390;8.640;2023-10-19T11:02:41;97039.78;;;18.23;93.14
54389;BME280;40975;50.390;8.640;2023-10-19T11:05:16;97030.47;;;18.09;96.93
54389;BME280;40975;50.390;8.640;2023-10-19T11:08:02;97036.00;;;18.19;97.06
54389;BME280;40975;50.390;8.640;2023-10-19T11:10:29;97025.41;;;18.74;95.63
54389;BME280;40975;50.390;8.640;2023-10-19T11:13:03;97042.06;;;18.93;92.62
54389;BME280;40975;50.390;8.640;2023-10-19T11:15:28;97035.38;;;19.23;91.87
54389;BME280;40975;50.390;8.640;2023-10-19T11:17:54;97031.16;;;19.05;92.29
54389;BME280;40975;50.390;8.640;2023-10-19T11:20:23;97021.91;;;18.73;93.23
54389;BME280;40975;50.390;8.640;2023-10-19T11:22:52;97028.97;;;18.57;95.58
54389;BME280;40975;50.390;8.640;2023-10-19T11:25:22;97012.03;;;18.57;96.62
54389;BME280;40975;50.390;8.640;2023-10-19T11:27:48;97018.09;;;18.69;96.40
54389;BME280;40975;50.390;8.640;2023-10-19T11:30:14;97017.03;;;18.26;97.00
54389;BME280;40975;50.390;8.640;2023-10-19T11:32:47;97004.59;;;18.20;98.35
54389;BME280;40975;50.390;8.640;2023-10-19T11:35:12;97010.22;;;18.01;99.50
54389;BME280;40975;50.390;8.640;2023-10-19T11:37:51;97002.09;;;17.96;100.00
54389;BME280;40975;50.390;8.640;2023-10-19T11:40:24;97007.94;;;17.42;100.00
54389;BME280;40975;50.390;8.640;2023-10-19T11:42:51;97010.16;;;17.16;100.00
54389;BME280;40975;50.390;8.640;2023-10-19T11:45:17;97009.03;;;16.71;100.00
54389;BME280;40975;50.390;8.640;2023-10-19T11:47:44;96994.44;;;16.38;100.00
54389;BME280;40975;50.390;8.640;2023-10-19T11:50:13;96993.09;;;16.23;100.00
54389;BME280;40975;50.390;8.640;2023-10-19T11:52:43;96982.97;;;16.25;100.00
54389;BME280;40975;50.390;8.640;2023-10-19T11:55:11;96983.56;;;16.15;100.00
54389;BME280;40975;50.390;8.640;2023-10-19T11:57:39;96987.75;;;16.23;100.00
54389;BME280;40975;50.390;8.640;2023-10-19T12:00:05;96989.38;;;16.24;100.00
54389;BME280;40975;50.390;8.640;2023-10-19T12:02:37;96975.28;;;16.17;100.00
54389;BME280;40975;50.390;8.640;2023-10-19T12:05:05;96984.13;;;16.17;100.00
54389;BME280;40975;50.390;8.640;2023-10-19T12:07:36;96984.50;;;15.97;100.00
54389;BME280;40975;50.390;8.640;2023-10-19T12:10:01;96981.63;;;15.87;100.00
54389;BME280;40975;50.390;8.640;2023-10-19T12:12:28;96984.63;;;15.91;100.00
54389;BME280;40975;50.390;8.640;2023-10-19T12:14:53;96978.53;;;15.83;100.00
54389;BME280;40975;50.390;8.640;2023-10-19T12:17:20;96977.97;;;15.81;100.00
54389;BME280;40975;50.390;8.640;2023-10-19T12:19:47;96970.53;;;15.72;100.00
54389;BME280;40975;50.390;8.640;2023-10-19T12:22:12;96975.28;;;15.69;100.00
54389;BME280;40975;50.390;8.640;2023-10-19T12:24:38;96966.22;;;15.59;100.00
54389;BME280;40975;50.390;8.640;2023-10-19T12:27:04;96974.47;;;15.69;100.00
54389;BME280;40975;50.390;8.640;2023-10-19T12:29:29;96960.44;;;15.85;100.00
54389;BME280;40975;50.390;8.640;2023-10-19T12:31:57;96961.25;;;15.98;100.00
54389;BME280;40975;50.390;8.640;2023-10-19T12:34:22;96961.94;;;16.05;100.00
54389;BME280;40975;50.390;8.640;2023-10-19T12:36:47;96952.63;;;16.08;100.00
54389;BME280;40975;50.390;8.640;2023-10-19T12:39:15;96950.16;;;16.18;100.00
54389;BME280;40975;50.390;8.640;2023-10-19T12:41:59;96947.84;;;16.22;100.00
54389;BME280;40975;50.390;8.640;2023-10-19T12:44:26;96956.75;;;16.27;100.00
54389;BME280;40975;50.390;8.640;2023-10-19T12:46:53;96960.47;;;16.38;100.00
54389;BME280;40975;50.390;8.640;2023-10-19T12:49:19;96958.84;;;16.37;100.00
54389;BME280;40975;50.390;8.640;2023-10-19T12:51:51;96952.19;;;16.40;100.00
54389;BME280;40975;50.390;8.640;2023-10-19T12:54:17;96946.72;;;16.46;100.00
54389;BME280;40975;50.390;8.640;2023-10-19T12:56:43;96944.16;;;16.40;100.00
54389;BME280;40975;50.390;8.640;2023-10-19T12:59:08;96940.06;;;16.49;100.00
54389;BME280;40975;50.390;8.640;2023-10-19T13:01:36;96941.69;;;16.50;100.00